Archival Weather

Chicago O'Hare International

Chicago, Illinois (KORD)

Report from: Saturday, March 5, 2022 9:35 PM CST
Current time: Saturday, February 4, 2023 10:25 PM CST

Current weather
Weather history
Weather forecast

Temperature16.7°C (62.1°F)
Dew point12.8°C (55.0°F)
Winds 19 kts (9.8 m/s, 21.9 mph) South-Southwest (200°)
Wind gusts 29 kts (14.9 m/s, 33.4 mph)
Peak wind 34 kts (17.5 m/s, 39.1 mph) Southwest (220°) at 21:21
Visibility10 mi. (16.1 km)
Clouds Ceiling: Broken clouds 2,400 ft. (732 m)
Broken clouds 3,800 ft. (1,158 m)
Overcast 6,000 ft. (1,829 m)
Altimeter29.64 in.Hg (1004 mB)
Relative humidity78 %
Density altitude730 ft. (222 m)
Remarks System requires maintenance
Automated weather observing station with precipitation discriminator
Flight conditions Marginal Visual Meteorological Conditions
Raw dataKORD 060335Z 20019G29KT 10SM BKN024 BKN038 OVC060 17/13 A2964 RMK AO2 PK WND 22034/0321 T01670128 $
An unhandled exception has occurred. See browser dev tools for details. Reload 🗙